Time;durP1;ratioP1;P1;durP2;ratioP2;P2;SDS_P1;SDS_P2;PMS_P1;PMS_P2;Temp;Humidity;BMP_temperature;BMP_pressure;BME280_temperature;BME280_humidity;BME280_pressure;Samples;Min_cycle;Max_cycle;Signal;HPM_P1;HPM_P2
2023/04/27 00:01:27;;;;;;;12.95;3.22;;;;;;;8.68;49.45;94340.53;4220623;28;20044;-61
2023/04/27 00:03:29;;;;;;;10.35;3.25;;;;;;;8.71;49.75;94349.84;4217767;28;20473;-60
2023/04/27 00:05:35;;;;;;;5.47;2.53;;;;;;;8.52;49.89;94338.66;4217633;28;20056;-59
2023/04/27 00:07:37;;;;;;;5.90;2.72;;;;;;;8.53;49.27;94345.50;4206952;28;20051;-60
2023/04/27 00:09:39;;;;;;;7.45;3.05;;;;;;;8.50;50.21;94345.84;4216253;28;20068;-59
2023/04/27 00:11:41;;;;;;;8.60;3.50;;;;;;;8.48;49.78;94352.19;4223642;28;20084;-60
2023/04/27 00:13:42;;;;;;;6.55;2.95;;;;;;;8.57;49.66;94353.88;4214028;28;20464;-59
2023/04/27 00:15:44;;;;;;;9.20;2.97;;;;;;;8.58;49.25;94347.66;4225647;28;20067;-60
2023/04/27 00:17:47;;;;;;;8.77;3.08;;;;;;;8.57;49.62;94346.84;4219682;28;20052;-58
2023/04/27 00:19:48;;;;;;;5.82;3.20;;;;;;;8.56;49.56;94349.59;4205170;28;20048;-57
2023/04/27 00:21:50;;;;;;;10.43;3.03;;;;;;;8.57;49.73;94343.44;4227871;28;20040;-60
2023/04/27 00:23:53;;;;;;;7.60;3.17;;;;;;;8.57;49.51;94354.69;4227931;28;20108;-60
2023/04/27 00:25:55;;;;;;;4.70;2.43;;;;;;;8.56;49.29;94349.59;4220077;28;20100;-58
2023/04/27 00:27:57;;;;;;;6.68;3.15;;;;;;;8.60;49.56;94356.16;4224399;28;20230;-58
2023/04/27 00:29:58;;;;;;;10.27;3.08;;;;;;;8.63;49.59;94349.81;4209147;28;20047;-59
2023/04/27 00:32:00;;;;;;;12.30;3.10;;;;;;;8.60;49.33;94349.16;4223197;28;20055;-59
2023/04/27 00:34:02;;;;;;;8.30;2.83;;;;;;;8.49;49.76;94348.59;4223204;28;20044;-59
2023/04/27 00:36:04;;;;;;;8.98;3.13;;;;;;;8.60;49.93;94343.94;4224475;28;20096;-58
2023/04/27 00:38:05;;;;;;;10.80;3.00;;;;;;;8.64;49.68;94344.44;4223989;28;20083;-59
2023/04/27 00:40:07;;;;;;;7.75;2.70;;;;;;;8.62;49.47;94343.75;4228797;28;20048;-62
2023/04/27 00:42:10;;;;;;;8.43;2.95;;;;;;;8.62;49.62;94343.75;4219511;28;20056;-59
2023/04/27 00:44:11;;;;;;;7.70;2.58;;;;;;;8.61;49.11;94340.34;4228197;28;20108;-61
2023/04/27 00:46:14;;;;;;;11.88;2.95;;;;;;;8.45;49.40;94350.69;4219245;28;20089;-56
2023/04/27 00:48:15;;;;;;;6.20;2.97;;;;;;;8.42;49.16;94345.78;4223761;28;20079;-59
2023/04/27 00:50:21;;;;;;;10.75;2.88;;;;;;;8.44;49.69;94354.28;4213213;28;20449;-59
2023/04/27 00:52:22;;;;;;;10.15;2.80;;;;;;;8.38;49.43;94349.66;4219868;28;20530;-60
2023/04/27 00:54:24;;;;;;;6.53;2.95;;;;;;;8.34;49.60;94354.34;4219592;27;20047;-59
2023/04/27 00:56:26;;;;;;;9.45;2.90;;;;;;;8.27;49.87;94349.91;4226984;28;20056;-59
2023/04/27 00:58:28;;;;;;;8.27;3.10;;;;;;;8.23;49.91;94353.78;4226972;28;20050;-59
2023/04/27 01:00:29;;;;;;;7.53;2.60;;;;;;;8.20;49.50;94349.72;4224507;28;20051;-59
2023/04/27 01:02:31;;;;;;;9.43;2.92;;;;;;;8.21;49.82;94353.94;4221324;28;20051;-60
2023/04/27 01:04:35;;;;;;;8.60;3.03;;;;;;;8.21;49.99;94349.53;4225361;28;20039;-61
2023/04/27 01:06:38;;;;;;;9.65;3.17;;;;;;;8.18;49.99;94356.88;4220289;28;20509;-60
2023/04/27 01:08:40;;;;;;;8.20;2.80;;;;;;;8.19;49.44;94361.09;4224081;28;20147;-59
2023/04/27 01:10:41;;;;;;;7.38;2.95;;;;;;;8.12;49.98;94358.28;4218452;28;20044;-57
2023/04/27 01:12:43;;;;;;;8.05;2.67;;;;;;;8.03;50.48;94359.19;4215565;28;20477;-59
2023/04/27 01:14:45;;;;;;;6.47;2.80;;;;;;;8.08;50.26;94361.34;4215024;27;20780;-58
2023/04/27 01:16:47;;;;;;;6.95;2.72;;;;;;;8.15;50.39;94365.81;4214265;28;20048;-59
2023/04/27 01:18:48;;;;;;;10.18;3.05;;;;;;;8.17;49.81;94363.03;4216098;28;20047;-59
2023/04/27 01:20:50;;;;;;;6.40;3.03;;;;;;;8.24;50.66;94358.03;4226120;28;20043;-61
2023/04/27 01:22:52;;;;;;;10.38;3.58;;;;;;;8.27;49.94;94363.78;4224815;28;20134;-60
2023/04/27 01:24:54;;;;;;;11.80;3.15;;;;;;;8.32;49.88;94371.13;4214189;28;20563;-60
2023/04/27 01:26:55;;;;;;;9.45;3.20;;;;;;;8.20;50.64;94362.75;4218436;28;20097;-60
2023/04/27 01:28:57;;;;;;;6.65;3.35;;;;;;;8.07;50.13;94368.38;4217391;28;20051;-60
2023/04/27 01:30:59;;;;;;;7.47;2.60;;;;;;;8.06;50.07;94366.72;4211180;28;20398;-60
2023/04/27 01:33:00;;;;;;;4.78;2.70;;;;;;;8.12;50.00;94368.72;4224010;28;20143;-61
2023/04/27 01:35:02;;;;;;;9.40;3.55;;;;;;;8.10;49.99;94368.06;4219472;28;20043;-62
2023/04/27 01:37:04;;;;;;;6.25;2.63;;;;;;;8.07;49.98;94365.75;4219572;28;20047;-61
2023/04/27 01:39:08;;;;;;;6.68;2.67;;;;;;;8.02;50.36;94373.19;4221068;28;20106;-61
2023/04/27 01:41:09;;;;;;;6.25;3.35;;;;;;;7.95;50.35;94377.41;4223278;28;20378;-62
2023/04/27 01:43:11;;;;;;;6.15;3.15;;;;;;;7.90;50.00;94374.44;4202434;28;20080;-62
2023/04/27 01:45:13;;;;;;;7.35;2.97;;;;;;;7.94;50.65;94373.16;4224579;28;20140;-60
2023/04/27 01:47:16;;;;;;;7.63;3.70;;;;;;;7.88;50.46;94371.97;4228653;28;20047;-61
2023/04/27 01:49:17;;;;;;;4.43;2.63;;;;;;;7.85;50.17;94374.88;4227934;27;20108;-61
2023/04/27 01:51:19;;;;;;;4.95;2.80;;;;;;;7.95;50.09;94378.19;4226254;28;20288;-61
2023/04/27 01:53:21;;;;;;;7.35;3.10;;;;;;;7.92;50.44;94377.72;4214517;28;20105;-61
2023/04/27 01:55:22;;;;;;;8.93;2.78;;;;;;;7.81;50.38;94378.75;4228145;28;20043;-60
2023/04/27 01:57:24;;;;;;;5.75;2.53;;;;;;;7.90;50.82;94372.63;4227935;28;20052;-61
2023/04/27 01:59:26;;;;;;;8.73;2.97;;;;;;;7.99;50.11;94373.50;4226187;28;20237;-62
2023/04/27 02:01:27;;;;;;;7.43;2.60;;;;;;;7.97;49.83;94378.06;4211605;28;20040;-61
2023/04/27 02:03:29;;;;;;;6.28;2.85;;;;;;;7.93;49.89;94372.31;4213973;28;20071;-61
2023/04/27 02:05:31;;;;;;;5.13;2.70;;;;;;;7.86;49.88;94370.47;4213955;28;20097;-60
2023/04/27 02:07:32;;;;;;;6.25;2.53;;;;;;;7.90;50.12;94379.66;4212503;28;20439;-60
2023/04/27 02:09:34;;;;;;;6.88;3.08;;;;;;;7.89;50.07;94375.38;4227626;28;20074;-61
2023/04/27 02:11:36;;;;;;;7.90;2.92;;;;;;;7.87;50.06;94379.94;4227739;28;20051;-61
2023/04/27 02:13:37;;;;;;;8.77;3.28;;;;;;;7.90;49.81;94375.25;4227320;28;20082;-62
2023/04/27 02:15:39;;;;;;;14.48;3.40;;;;;;;7.98;49.99;94380.53;4226735;28;20078;-61
2023/04/27 02:17:42;;;;;;;7.03;2.67;;;;;;;8.03;49.98;94381.88;4200983;28;20044;-61
2023/04/27 02:19:44;;;;;;;9.68;3.20;;;;;;;8.10;49.37;94378.50;4226558;28;20071;-61
2023/04/27 02:21:46;;;;;;;8.98;3.20;;;;;;;8.15;48.83;94383.25;4225087;28;20051;-59
2023/04/27 02:23:47;;;;;;;6.90;2.80;;;;;;;8.12;49.48;94378.34;4224275;28;20240;-58
2023/04/27 02:25:49;;;;;;;5.32;2.60;;;;;;;8.07;49.76;94381.41;4216532;28;20104;-59
2023/04/27 02:27:51;;;;;;;8.02;3.22;;;;;;;8.09;49.25;94376.88;4227576;28;20051;-62
2023/04/27 02:29:52;;;;;;;4.18;2.58;;;;;;;8.00;49.54;94378.59;4226945;28;20463;-59
2023/04/27 02:31:54;;;;;;;9.48;3.15;;;;;;;7.98;49.86;94382.31;4204619;28;20523;-58
2023/04/27 02:33:56;;;;;;;9.00;3.10;;;;;;;7.95;49.36;94385.22;4227454;28;20406;-61
2023/04/27 02:35:58;;;;;;;9.25;3.38;;;;;;;7.96;49.78;94385.06;4228298;28;20139;-61
2023/04/27 02:38:00;;;;;;;7.47;2.78;;;;;;;7.94;49.75;94391.41;4226452;28;20083;-60
2023/04/27 02:40:03;;;;;;;9.85;2.85;;;;;;;7.85;49.36;94384.47;4222900;28;20486;-60
2023/04/27 02:42:04;;;;;;;7.72;3.10;;;;;;;7.88;49.31;94389.41;4212122;28;20117;-62
2023/04/27 02:44:06;;;;;;;9.15;2.83;;;;;;;7.80;49.61;94388.34;4220711;28;20127;-61
2023/04/27 02:46:08;;;;;;;7.82;3.03;;;;;;;7.70;50.05;94392.00;4220544;28;20052;-62
2023/04/27 02:48:09;;;;;;;6.53;2.67;;;;;;;7.76;49.42;94384.41;4225508;28;20120;-61
2023/04/27 02:50:12;;;;;;;8.00;2.75;;;;;;;7.78;49.37;94389.47;4226472;28;20047;-61
2023/04/27 02:52:14;;;;;;;8.20;3.33;;;;;;;7.83;49.64;94397.69;4219055;28;20048;-60
2023/04/27 02:54:16;;;;;;;9.43;2.75;;;;;;;7.84;49.85;94391.47;4221040;28;20104;-62
2023/04/27 02:56:17;;;;;;;5.97;3.15;;;;;;;7.89;48.85;94393.63;4225049;28;20415;-62
2023/04/27 02:58:19;;;;;;;5.00;2.58;;;;;;;7.84;49.00;94391.47;4226767;28;20047;-61
2023/04/27 03:00:21;;;;;;;6.72;2.95;;;;;;;7.86;49.54;94389.56;4225857;28;20094;-62
2023/04/27 03:02:23;;;;;;;5.60;2.83;;;;;;;7.71;49.03;94399.69;4216670;28;20093;-60
2023/04/27 03:04:26;;;;;;;8.23;3.00;;;;;;;7.80;49.20;94387.53;4213261;28;20050;-62
2023/04/27 03:06:28;;;;;;;8.18;2.63;;;;;;;7.82;49.05;94392.59;4225389;28;20047;-59
2023/04/27 03:08:30;;;;;;;6.15;2.63;;;;;;;7.79;49.17;94402.38;4218343;28;20663;-61
2023/04/27 03:10:32;;;;;;;9.18;3.22;;;;;;;7.76;49.22;94402.66;4222511;28;20463;-60
2023/04/27 03:12:33;;;;;;;8.18;2.88;;;;;;;7.74;49.18;94399.41;4223362;28;20048;-62
2023/04/27 03:14:35;;;;;;;5.57;2.97;;;;;;;7.65;49.12;94396.84;4211113;28;20552;-61
2023/04/27 03:16:37;;;;;;;7.10;3.08;;;;;;;7.56;49.48;94407.19;4218765;28;20101;-62
2023/04/27 03:18:38;;;;;;;8.13;2.85;;;;;;;7.68;49.32;94412.19;4225664;28;20047;-61
2023/04/27 03:20:40;;;;;;;5.40;2.92;;;;;;;7.56;49.57;94404.59;4208929;28;20513;-61
2023/04/27 03:22:44;;;;;;;9.13;3.38;;;;;;;7.64;48.92;94414.28;4224236;28;20101;-60
2023/04/27 03:24:46;;;;;;;7.75;3.50;;;;;;;7.63;49.12;94412.63;4218035;28;20097;-61
2023/04/27 03:26:47;;;;;;;9.55;3.38;;;;;;;7.63;49.12;94407.41;4211672;28;20102;-61
2023/04/27 03:28:49;;;;;;;8.20;3.08;;;;;;;7.71;49.37;94419.72;4211362;28;20055;-59
2023/04/27 03:30:51;;;;;;;9.93;3.00;;;;;;;7.65;49.18;94415.91;4211956;28;20048;-60
2023/04/27 03:32:53;;;;;;;10.30;3.10;;;;;;;7.74;49.44;94415.03;4209862;28;20094;-61
2023/04/27 03:34:55;;;;;;;9.77;3.33;;;;;;;7.70;48.92;94418.06;4212755;28;20090;-63
2023/04/27 03:36:57;;;;;;;8.95;2.60;;;;;;;7.73;49.22;94428.22;4212067;28;20059;-61
2023/04/27 03:38:58;;;;;;;4.43;2.88;;;;;;;7.69;49.10;94421.66;4211795;28;20533;-61
2023/04/27 03:41:00;;;;;;;7.95;3.63;;;;;;;7.69;49.58;94414.66;4212750;28;20040;-63
2023/04/27 03:43:02;;;;;;;7.07;2.92;;;;;;;7.67;49.35;94423.59;4220832;28;20098;-61
2023/04/27 03:45:05;;;;;;;7.05;3.08;;;;;;;7.56;49.85;94425.44;4210606;28;20132;-60
2023/04/27 03:47:08;;;;;;;8.33;2.83;;;;;;;7.59;49.56;94419.09;4222351;28;20108;-61
2023/04/27 03:49:10;;;;;;;6.63;2.92;;;;;;;7.51;49.02;94429.47;4221622;28;20082;-61
2023/04/27 03:51:12;;;;;;;5.00;2.83;;;;;;;7.52;49.68;94428.50;4210478;28;20097;-60
2023/04/27 03:53:14;;;;;;;7.97;3.08;;;;;;;7.53;49.54;94428.34;4222478;28;20417;-60
2023/04/27 03:55:16;;;;;;;8.18;3.10;;;;;;;7.63;49.09;94432.69;4230253;28;20047;-62
2023/04/27 03:57:17;;;;;;;9.98;3.63;;;;;;;7.64;49.23;94437.75;4229546;28;20062;-63
2023/04/27 03:59:19;;;;;;;6.20;2.90;;;;;;;7.55;49.09;94441.22;4224522;28;20047;-61
2023/04/27 04:01:21;;;;;;;8.52;3.20;;;;;;;7.58;49.13;94444.38;4222091;28;20436;-63
2023/04/27 04:03:22;;;;;;;8.43;3.15;;;;;;;7.43;49.14;94450.22;4221083;28;20059;-63
2023/04/27 04:05:24;;;;;;;7.38;2.85;;;;;;;7.41;49.19;94449.56;4222456;28;20125;-62
2023/04/27 04:07:26;;;;;;;8.75;3.20;;;;;;;7.29;49.38;94456.72;4221366;28;20072;-61
2023/04/27 04:09:27;;;;;;;7.40;3.50;;;;;;;7.36;50.15;94466.44;4223203;28;20055;-63
2023/04/27 04:11:29;;;;;;;8.23;3.25;;;;;;;7.28;49.64;94452.50;4230002;28;20047;-61
2023/04/27 04:13:31;;;;;;;7.28;3.03;;;;;;;7.22;49.65;94453.88;4218164;28;20521;-62
2023/04/27 04:15:33;;;;;;;9.50;3.13;;;;;;;7.26;49.48;94462.25;4216608;28;20482;-63
2023/04/27 04:17:34;;;;;;;11.23;3.50;;;;;;;7.44;49.11;94470.09;4213238;28;20135;-61
2023/04/27 04:19:36;;;;;;;9.07;3.38;;;;;;;7.50;49.35;94472.13;4225563;27;20044;-63
2023/04/27 04:21:38;;;;;;;12.68;3.13;;;;;;;7.51;48.89;94465.97;4227261;28;20048;-62
2023/04/27 04:23:39;;;;;;;8.23;3.20;;;;;;;7.54;48.90;94468.28;4228470;28;20055;-63
2023/04/27 04:25:42;;;;;;;8.88;3.17;;;;;;;7.58;49.27;94472.22;4217884;28;20595;-61
2023/04/27 04:27:43;;;;;;;6.75;3.75;;;;;;;7.69;48.38;94476.41;4216207;28;20048;-60
2023/04/27 04:29:45;;;;;;;5.85;2.97;;;;;;;7.69;48.38;94473.81;4215665;28;20052;-62
2023/04/27 04:31:47;;;;;;;6.82;3.30;;;;;;;7.64;48.52;94476.84;4216197;28;20549;-63
2023/04/27 04:33:48;;;;;;;11.75;3.40;;;;;;;7.67;48.52;94481.75;4216244;28;20142;-62
2023/04/27 04:35:50;;;;;;;6.82;3.33;;;;;;;7.71;48.98;94480.50;4217292;28;20497;-63
2023/04/27 04:37:52;;;;;;;8.52;4.05;;;;;;;7.80;48.75;94481.41;4214662;28;20083;-63
2023/04/27 04:39:54;;;;;;;6.93;3.50;;;;;;;7.72;48.39;94489.16;4217093;28;20048;-63
2023/04/27 04:41:56;;;;;;;13.32;3.75;;;;;;;7.79;48.78;94483.22;4217405;28;20048;-62
2023/04/27 04:43:58;;;;;;;8.93;3.95;;;;;;;7.77;48.94;94487.75;4229402;28;20108;-62
2023/04/27 04:46:00;;;;;;;15.40;4.13;;;;;;;7.37;50.08;94488.91;4220765;28;20052;-61
2023/04/27 04:48:02;;;;;;;8.65;3.90;;;;;;;7.31;50.16;94499.94;4223618;28;20052;-62
2023/04/27 04:50:05;;;;;;;10.25;3.75;;;;;;;7.12;50.46;94494.78;4224430;28;20082;-63
2023/04/27 04:52:07;;;;;;;10.95;3.83;;;;;;;7.38;49.96;94494.97;4226495;28;20048;-64
2023/04/27 04:54:09;;;;;;;9.10;3.38;;;;;;;7.42;49.63;94498.94;4225310;28;20079;-62
2023/04/27 04:56:12;;;;;;;8.50;3.63;;;;;;;7.46;49.83;94496.84;4221686;28;20040;-63
2023/04/27 04:58:13;;;;;;;7.47;3.67;;;;;;;7.62;49.50;94501.44;4226213;28;20048;-64
2023/04/27 05:00:15;;;;;;;10.57;3.78;;;;;;;7.63;49.23;94501.28;4221687;28;20546;-64
2023/04/27 05:02:17;;;;;;;11.05;4.25;;;;;;;7.48;49.87;94502.72;4225811;28;20438;-63
2023/04/27 05:04:19;;;;;;;9.93;3.40;;;;;;;7.69;48.97;94502.50;4213729;28;20120;-64
2023/04/27 05:06:21;;;;;;;7.60;3.50;;;;;;;7.85;48.80;94505.28;4215020;28;20111;-63
2023/04/27 05:08:23;;;;;;;10.57;3.28;;;;;;;7.58;48.68;94509.53;4219320;28;20070;-63
2023/04/27 05:10:24;;;;;;;12.27;3.97;;;;;;;7.35;49.85;94513.50;4220470;28;20056;-64
2023/04/27 05:12:26;;;;;;;11.02;4.47;;;;;;;7.22;50.83;94524.22;4215111;28;20155;-62
2023/04/27 05:14:28;;;;;;;7.82;3.70;;;;;;;6.76;52.17;94524.09;4213238;28;20039;-63
2023/04/27 05:16:29;;;;;;;9.07;4.03;;;;;;;6.71;52.06;94521.09;4213623;28;20036;-61
2023/04/27 05:18:32;;;;;;;8.98;3.90;;;;;;;6.88;52.31;94529.97;4222732;28;20109;-61
2023/04/27 05:20:34;;;;;;;8.55;3.90;;;;;;;7.00;51.66;94535.81;4216061;28;20044;-62
2023/04/27 05:22:36;;;;;;;10.05;4.00;;;;;;;7.14;50.97;94529.31;4226316;28;20084;-62
2023/04/27 05:24:38;;;;;;;10.43;3.63;;;;;;;7.40;50.97;94526.94;4220324;28;20514;-61
2023/04/27 05:26:41;;;;;;;9.32;5.13;;;;;;;7.54;50.60;94533.44;4225880;28;20100;-63
2023/04/27 05:28:43;;;;;;;10.20;4.53;;;;;;;7.63;50.77;94529.13;4220228;28;20472;-62
2023/04/27 05:30:45;;;;;;;9.68;4.15;;;;;;;7.70;50.85;94524.97;4224785;28;20047;-63
2023/04/27 05:32:47;;;;;;;11.98;4.05;;;;;;;7.66;50.38;94527.06;4211782;28;20052;-64
2023/04/27 05:34:48;;;;;;;6.82;3.67;;;;;;;7.66;50.50;94527.06;4220336;28;20044;-64
2023/04/27 05:36:50;;;;;;;8.73;3.53;;;;;;;7.68;50.55;94532.13;4221460;28;20048;-67
2023/04/27 05:38:52;;;;;;;6.57;3.33;;;;;;;7.71;50.00;94535.28;4203624;28;20299;-63
2023/04/27 05:40:55;;;;;;;9.15;3.72;;;;;;;7.64;49.73;94542.03;4219900;28;20184;-63
2023/04/27 05:42:57;;;;;;;8.18;3.65;;;;;;;7.62;50.02;94537.94;4225324;28;20052;-61
2023/04/27 05:44:59;;;;;;;8.80;3.63;;;;;;;7.58;50.35;94542.63;4227122;28;20094;-62
2023/04/27 05:47:01;;;;;;;9.18;3.70;;;;;;;7.56;50.19;94542.75;4203232;28;20427;-62
2023/04/27 05:49:02;;;;;;;9.15;3.88;;;;;;;7.67;50.24;94559.16;4228920;28;20101;-63
2023/04/27 05:51:06;;;;;;;9.10;3.60;;;;;;;7.76;49.83;94534.81;4228283;28;20051;-65
2023/04/27 05:53:08;;;;;;;8.18;4.15;;;;;;;7.70;50.24;94541.47;4226226;28;20059;-63
2023/04/27 05:55:10;;;;;;;8.50;3.67;;;;;;;7.71;49.76;94547.50;4227926;28;20047;-62
2023/04/27 05:57:11;;;;;;;7.95;3.63;;;;;;;7.78;50.66;94551.16;4225851;28;20094;-68
2023/04/27 05:59:13;;;;;;;9.40;3.92;;;;;;;7.89;49.84;94540.50;4228375;28;20075;-61
2023/04/27 06:01:15;;;;;;;10.55;4.00;;;;;;;7.88;50.13;94545.91;4223169;28;20052;-64
2023/04/27 06:03:17;;;;;;;10.30;4.53;;;;;;;7.80;50.26;94541.41;4214309;28;20048;-62
2023/04/27 06:05:20;;;;;;;10.77;5.38;;;;;;;8.00;49.93;94552.53;4212970;28;20047;-62
2023/04/27 06:07:21;;;;;;;11.43;3.70;;;;;;;8.03;49.53;94549.63;4213711;28;20062;-65
2023/04/27 06:09:23;;;;;;;9.23;4.28;;;;;;;8.06;49.62;94544.13;4215244;28;20055;-63
2023/04/27 06:11:25;;;;;;;6.50;3.97;;;;;;;8.02;49.70;94547.97;4216857;28;20071;-63
2023/04/27 06:13:27;;;;;;;15.85;4.60;;;;;;;7.96;50.13;94546.00;4227814;28;20489;-62
2023/04/27 06:15:28;;;;;;;10.27;4.43;;;;;;;8.02;49.91;94540.16;4218657;28;20059;-63
2023/04/27 06:17:30;;;;;;;9.98;4.20;;;;;;;8.13;50.04;94539.13;4224696;28;20468;-64
2023/04/27 06:19:32;;;;;;;11.00;4.80;;;;;;;8.28;49.56;94548.09;4205235;28;20130;-63
2023/04/27 06:21:34;;;;;;;11.00;3.95;;;;;;;8.46;49.25;94532.47;4225682;28;20069;-62
2023/04/27 06:23:36;;;;;;;9.75;3.70;;;;;;;8.53;48.81;94533.50;4224460;28;20056;-62
2023/04/27 06:25:39;;;;;;;5.88;3.25;;;;;;;8.61;48.59;94532.75;4228473;28;20047;-63
2023/04/27 06:27:41;;;;;;;9.32;3.78;;;;;;;8.52;49.27;94537.09;4227878;28;20047;-63
2023/04/27 06:29:42;;;;;;;6.80;3.58;;;;;;;8.46;48.58;94529.84;4228776;28;20537;-63
2023/04/27 06:31:44;;;;;;;7.90;3.80;;;;;;;8.45;48.52;94533.41;4205354;28;20076;-64
2023/04/27 06:33:45;;;;;;;10.23;3.80;;;;;;;8.29;48.80;94541.09;4228930;28;20051;-62
2023/04/27 06:35:47;;;;;;;11.25;4.07;;;;;;;8.48;47.74;94535.75;4229010;28;20043;-63
2023/04/27 06:37:49;;;;;;;7.00;3.13;;;;;;;8.58;47.89;94523.44;4225813;28;20055;-64
2023/04/27 06:39:50;;;;;;;9.95;3.47;;;;;;;8.68;48.58;94532.97;4228175;28;20153;-63
2023/04/27 06:41:52;;;;;;;9.57;4.35;;;;;;;8.79;47.99;94540.56;4227001;28;20639;-63
2023/04/27 06:43:54;;;;;;;9.45;4.13;;;;;;;8.80;48.24;94531.75;4228562;28;20266;-67
2023/04/27 06:45:59;;;;;;;8.38;3.85;;;;;;;8.87;47.82;94532.78;4227159;28;20421;-64
2023/04/27 06:48:00;;;;;;;6.32;3.70;;;;;;;8.87;47.11;94521.53;4228146;28;20052;-64
2023/04/27 06:50:03;;;;;;;11.93;4.07;;;;;;;8.95;47.47;94525.00;4225597;28;20132;-63
2023/04/27 06:52:05;;;;;;;6.13;3.60;;;;;;;8.97;47.68;94530.91;4226530;28;20059;-63
2023/04/27 06:54:07;;;;;;;11.90;3.35;;;;;;;9.00;47.34;94529.78;4217696;28;20052;-63
2023/04/27 06:56:10;;;;;;;12.23;4.57;;;;;;;8.79;47.89;94527.50;4223344;28;20501;-62
2023/04/27 06:58:12;;;;;;;9.00;4.28;;;;;;;8.85;48.02;94524.28;4216778;28;20075;-66
2023/04/27 07:00:13;;;;;;;10.95;3.95;;;;;;;8.84;47.92;94529.66;4220288;28;20055;-61
2023/04/27 07:02:15;;;;;;;11.68;4.20;;;;;;;8.41;48.51;94524.28;4226844;27;20051;-64
2023/04/27 07:04:17;;;;;;;8.77;4.07;;;;;;;8.34;48.90;94539.66;4215522;28;20414;-62
2023/04/27 07:06:19;;;;;;;8.60;4.28;;;;;;;8.24;48.89;94519.81;4215850;28;20978;-63
2023/04/27 07:08:20;;;;;;;18.25;4.72;;;;;;;8.10;49.42;94527.19;4221964;28;20493;-63
2023/04/27 07:10:22;;;;;;;8.07;3.78;;;;;;;8.32;49.21;94527.72;4212202;28;20060;-64
2023/04/27 07:12:24;;;;;;;7.22;3.65;;;;;;;8.58;49.22;94519.97;4223887;28;20082;-64
2023/04/27 07:14:25;;;;;;;6.38;4.07;;;;;;;8.88;47.96;94525.75;4227072;28;20729;-63
2023/04/27 07:16:27;;;;;;;8.63;3.80;;;;;;;9.14;47.23;94525.75;4226208;28;20040;-65
2023/04/27 07:18:28;;;;;;;6.43;3.50;;;;;;;9.29;46.69;94521.63;4225928;28;20051;-64
2023/04/27 07:20:30;;;;;;;12.77;4.57;;;;;;;9.31;46.28;94540.56;4223475;28;20083;-62
2023/04/27 07:22:32;;;;;;;11.90;4.65;;;;;;;9.21;47.04;94521.56;4213000;28;20047;-63
2023/04/27 07:24:34;;;;;;;15.60;7.07;;;;;;;8.97;46.96;94520.44;4227632;28;20100;-61
2023/04/27 07:26:36;;;;;;;15.32;7.28;;;;;;;9.02;47.07;94523.41;4226822;28;20086;-63
2023/04/27 07:28:38;;;;;;;21.48;6.07;;;;;;;8.69;47.46;94529.38;4214960;28;20094;-62
2023/04/27 07:30:41;;;;;;;12.15;5.00;;;;;;;8.45;48.33;94525.59;4215783;28;20093;-62
2023/04/27 07:32:43;;;;;;;11.05;5.75;;;;;;;8.81;47.68;94515.09;4204256;28;20043;-64
2023/04/27 07:34:45;;;;;;;7.88;3.75;;;;;;;9.19;48.05;94521.72;4221828;28;20047;-65
2023/04/27 07:36:54;;;;;;;7.30;3.92;;;;;;;9.43;46.94;94523.63;4222969;28;20048;-59
2023/04/27 07:38:57;;;;;;;8.60;4.03;;;;;;;9.74;46.19;94515.25;4218270;28;20044;-61
2023/04/27 07:41:03;;;;;;;6.03;4.17;;;;;;;9.96;45.33;94515.66;4228002;28;20060;-64
2023/04/27 07:43:04;;;;;;;9.38;4.03;;;;;;;9.91;45.10;94512.69;4221931;28;20051;-63
2023/04/27 07:45:08;;;;;;;5.25;2.92;;;;;;;10.02;44.23;94517.63;4212227;28;20051;-62
2023/04/27 07:47:10;;;;;;;13.48;7.65;;;;;;;9.80;44.78;94512.00;4222471;28;20040;-61
2023/04/27 07:49:12;;;;;;;15.38;6.90;;;;;;;9.54;44.79;94526.97;4215251;28;20474;-62
2023/04/27 07:51:16;;;;;;;12.07;5.88;;;;;;;9.54;45.60;94519.91;4222395;28;20043;-61
2023/04/27 07:53:18;;;;;;;6.53;3.50;;;;;;;9.65;45.56;94513.59;4223391;28;20052;-61
2023/04/27 07:55:23;;;;;;;7.20;3.95;;;;;;;10.05;44.87;94512.09;4225793;28;20086;-65
2023/04/27 07:57:25;;;;;;;13.50;4.70;;;;;;;10.28;44.65;94508.84;4226498;28;20047;-63
2023/04/27 07:59:29;;;;;;;9.63;3.72;;;;;;;9.57;45.14;94527.47;4220023;28;20044;-61
2023/04/27 08:01:31;;;;;;;8.55;3.75;;;;;;;9.93;44.32;94514.16;4206649;28;20071;-62
2023/04/27 08:03:32;;;;;;;9.30;4.15;;;;;;;10.34;44.20;94511.66;4223032;28;20039;-62
2023/04/27 08:05:35;;;;;;;7.18;3.42;;;;;;;10.52;43.50;94514.16;4220486;28;20054;-62
2023/04/27 08:07:37;;;;;;;5.93;3.22;;;;;;;10.78;42.51;94510.56;4210063;28;20071;-62
2023/04/27 08:09:44;;;;;;;9.00;3.90;;;;;;;10.97;42.14;94518.06;4215567;28;20130;-61
2023/04/27 08:11:46;;;;;;;4.95;3.17;;;;;;;10.74;42.62;94517.09;4222275;28;20101;-62
2023/04/27 08:13:48;;;;;;;8.57;3.17;;;;;;;10.85;42.12;94516.75;4226695;28;20071;-62
2023/04/27 08:16:06;;;;;;;10.82;3.53;;;;;;;10.88;41.81;94508.56;4225418;28;20038;-62
2023/04/27 08:18:08;;;;;;;5.82;3.63;;;;;;;11.08;41.66;94514.28;4220188;28;20048;-63
2023/04/27 08:20:10;;;;;;;6.93;3.20;;;;;;;11.28;42.09;94501.63;4224482;28;20066;-61
2023/04/27 08:22:12;;;;;;;7.93;3.17;;;;;;;11.23;41.92;94507.38;4223248;28;20052;-63
2023/04/27 08:24:14;;;;;;;5.25;2.70;;;;;;;11.06;42.10;94509.19;4225667;28;20465;-61
2023/04/27 08:26:15;;;;;;;9.05;2.95;;;;;;;11.23;42.39;94517.03;4219780;28;20135;-63
2023/04/27 08:28:17;;;;;;;7.70;3.28;;;;;;;11.33;41.92;94514.22;4222300;28;20059;-63
2023/04/27 08:30:20;;;;;;;5.00;2.85;;;;;;;11.31;41.59;94511.75;4211977;28;20058;-63
2023/04/27 08:32:21;;;;;;;8.88;3.40;;;;;;;11.42;41.10;94510.56;4201363;28;20051;-66
2023/04/27 08:34:23;;;;;;;5.18;2.70;;;;;;;11.34;41.35;94495.69;4212870;28;20494;-64
2023/04/27 08:36:26;;;;;;;4.70;2.70;;;;;;;11.20;41.73;94512.94;4210485;28;20333;-64
2023/04/27 08:38:28;;;;;;;10.70;3.13;;;;;;;10.94;41.69;94515.75;4211925;28;20163;-60
2023/04/27 08:40:29;;;;;;;9.27;3.53;;;;;;;10.71;42.89;94507.78;4220443;28;20391;-62
2023/04/27 08:42:31;;;;;;;13.13;3.67;;;;;;;10.37;43.17;94523.63;4226584;27;20047;-63
2023/04/27 08:44:37;;;;;;;6.13;2.90;;;;;;;10.78;43.08;94513.16;4219492;28;20048;-64
2023/04/27 08:46:39;;;;;;;6.00;2.60;;;;;;;11.02;42.10;94509.69;4223930;28;20052;-63
2023/04/27 08:48:41;;;;;;;7.72;2.83;;;;;;;11.31;41.51;94513.56;4229989;28;20039;-64
2023/04/27 08:50:43;;;;;;;5.15;2.35;;;;;;;11.47;41.08;94508.28;4229982;28;20122;-64
2023/04/27 08:52:46;;;;;;;4.28;2.53;;;;;;;11.64;40.39;94509.84;4217290;28;20079;-62
2023/04/27 08:54:47;;;;;;;7.93;2.88;;;;;;;11.69;40.36;94507.53;4227097;28;20055;-65
2023/04/27 08:56:49;;;;;;;8.38;3.67;;;;;;;11.53;40.51;94514.63;4228958;28;20032;-64
2023/04/27 08:58:51;;;;;;;5.22;2.83;;;;;;;11.31;40.60;94517.00;4228869;28;20104;-64
2023/04/27 09:00:53;;;;;;;6.28;2.90;;;;;;;11.51;40.46;94514.00;4228112;28;20052;-64
2023/04/27 09:02:54;;;;;;;5.95;2.72;;;;;;;11.62;40.17;94496.09;4214956;28;20055;-64
2023/04/27 09:04:56;;;;;;;5.65;2.58;;;;;;;11.61;40.48;94512.00;4228848;27;20090;-63
2023/04/27 09:07:09;;;;;;;9.55;2.95;;;;;;;11.85;39.87;94508.44;4228092;28;20048;-61
2023/04/27 09:09:20;;;;;;;5.72;3.45;;;;;;;11.03;40.23;94521.81;4227711;28;20043;-61
2023/04/27 09:11:38;;;;;;;5.47;2.88;;;;;;;11.10;40.68;94511.47;4218795;28;20048;-64
2023/04/27 09:13:43;;;;;;;6.10;2.88;;;;;;;11.37;40.45;94511.09;4228444;28;20112;-62
2023/04/27 09:15:50;;;;;;;5.07;2.33;;;;;;;11.73;40.34;94502.78;4223602;28;20044;-63
2023/04/27 09:17:55;;;;;;;4.60;2.58;;;;;;;11.85;39.66;94498.78;4225249;28;20051;-63
2023/04/27 09:20:07;;;;;;;3.83;2.33;;;;;;;11.79;39.54;94501.28;4218772;28;20059;-63
2023/04/27 09:22:10;;;;;;;5.28;2.53;;;;;;;12.04;39.51;94500.16;4222018;28;20074;-64
2023/04/27 09:24:12;;;;;;;4.10;2.50;;;;;;;12.39;39.33;94502.41;4225746;28;20512;-64
2023/04/27 09:26:20;;;;;;;4.72;2.70;;;;;;;12.62;38.46;94497.97;4223387;28;20036;-63
2023/04/27 09:28:24;;;;;;;4.47;2.40;;;;;;;12.81;38.15;94494.03;4212987;28;20052;-62
2023/04/27 09:30:26;;;;;;;3.97;2.60;;;;;;;12.95;37.19;94492.47;4226115;28;20090;-62
2023/04/27 09:32:28;;;;;;;6.55;2.55;;;;;;;12.81;36.97;94494.03;4219604;28;20439;-65
2023/04/27 09:34:42;;;;;;;5.93;2.67;;;;;;;12.73;37.27;94488.03;4228330;28;20416;-64
2023/04/27 09:36:44;;;;;;;8.23;2.72;;;;;;;12.73;37.23;94482.78;4225042;28;20045;-64
2023/04/27 09:38:46;;;;;;;3.47;2.28;;;;;;;12.66;36.49;94487.94;4228099;28;20100;-62
2023/04/27 09:40:49;;;;;;;5.75;2.30;;;;;;;12.86;36.64;94485.63;4228165;28;20043;-63